sensor_id;sensor_type;location;lat;lon;timestamp;temperature;humidity
20957;DHT22;10637;47.970;7.830;2023-12-14T00:02:53;7.80;99.90
20957;DHT22;10637;47.970;7.830;2023-12-14T00:07:54;7.80;99.90
20957;DHT22;10637;47.970;7.830;2023-12-14T00:12:56;7.90;99.90
20957;DHT22;10637;47.970;7.830;2023-12-14T00:17:58;7.90;99.90
20957;DHT22;10637;47.970;7.830;2023-12-14T00:23:00;7.90;99.90
20957;DHT22;10637;47.970;7.830;2023-12-14T00:28:02;7.90;99.90
20957;DHT22;10637;47.970;7.830;2023-12-14T00:33:03;8.00;99.90
20957;DHT22;10637;47.970;7.830;2023-12-14T00:38:05;8.10;99.90
20957;DHT22;10637;47.970;7.830;2023-12-14T00:43:07;8.00;99.90
20957;DHT22;10637;47.970;7.830;2023-12-14T00:48:09;8.10;99.90
20957;DHT22;10637;47.970;7.830;2023-12-14T00:53:10;8.00;99.90
20957;DHT22;10637;47.970;7.830;2023-12-14T00:58:12;8.00;99.90
20957;DHT22;10637;47.970;7.830;2023-12-14T01:03:14;8.00;99.90
20957;DHT22;10637;47.970;7.830;2023-12-14T01:08:17;8.00;99.90
20957;DHT22;10637;47.970;7.830;2023-12-14T01:13:18;8.00;99.90
20957;DHT22;10637;47.970;7.830;2023-12-14T01:18:20;7.90;99.90
20957;DHT22;10637;47.970;7.830;2023-12-14T01:23:22;8.00;99.90
20957;DHT22;10637;47.970;7.830;2023-12-14T01:28:23;7.80;99.90
20957;DHT22;10637;47.970;7.830;2023-12-14T01:33:25;7.80;99.90
20957;DHT22;10637;47.970;7.830;2023-12-14T01:38:27;7.90;99.90
20957;DHT22;10637;47.970;7.830;2023-12-14T01:43:29;7.80;99.90
20957;DHT22;10637;47.970;7.830;2023-12-14T01:48:31;7.90;99.90
20957;DHT22;10637;47.970;7.830;2023-12-14T01:53:33;7.80;99.90
20957;DHT22;10637;47.970;7.830;2023-12-14T01:58:34;7.80;99.90
20957;DHT22;10637;47.970;7.830;2023-12-14T02:03:46;7.80;99.90
20957;DHT22;10637;47.970;7.830;2023-12-14T02:08:50;7.80;99.90
20957;DHT22;10637;47.970;7.830;2023-12-14T02:13:52;7.80;99.90
20957;DHT22;10637;47.970;7.830;2023-12-14T02:18:54;7.80;99.90
20957;DHT22;10637;47.970;7.830;2023-12-14T02:23:56;7.80;99.90
20957;DHT22;10637;47.970;7.830;2023-12-14T02:28:57;7.80;99.90
20957;DHT22;10637;47.970;7.830;2023-12-14T02:33:59;7.80;99.90
20957;DHT22;10637;47.970;7.830;2023-12-14T02:39:01;7.80;99.90
20957;DHT22;10637;47.970;7.830;2023-12-14T02:44:03;7.80;99.90
20957;DHT22;10637;47.970;7.830;2023-12-14T02:49:05;7.90;99.90
20957;DHT22;10637;47.970;7.830;2023-12-14T02:54:07;7.90;99.90
20957;DHT22;10637;47.970;7.830;2023-12-14T02:59:08;7.90;99.90
20957;DHT22;10637;47.970;7.830;2023-12-14T03:04:10;7.90;99.90
20957;DHT22;10637;47.970;7.830;2023-12-14T03:09:12;7.80;99.90
20957;DHT22;10637;47.970;7.830;2023-12-14T03:14:14;7.90;99.90
20957;DHT22;10637;47.970;7.830;2023-12-14T03:19:16;7.80;99.90
20957;DHT22;10637;47.970;7.830;2023-12-14T03:24:18;7.90;99.90
20957;DHT22;10637;47.970;7.830;2023-12-14T03:29:19;7.80;99.90
20957;DHT22;10637;47.970;7.830;2023-12-14T03:34:23;7.80;99.90
20957;DHT22;10637;47.970;7.830;2023-12-14T03:39:25;7.90;99.90
20957;DHT22;10637;47.970;7.830;2023-12-14T03:44:26;7.90;99.90
20957;DHT22;10637;47.970;7.830;2023-12-14T03:49:29;8.00;99.90
20957;DHT22;10637;47.970;7.830;2023-12-14T03:54:30;7.90;99.90
20957;DHT22;10637;47.970;7.830;2023-12-14T03:59:32;8.00;99.90
20957;DHT22;10637;47.970;7.830;2023-12-14T04:04:35;8.00;99.90
20957;DHT22;10637;47.970;7.830;2023-12-14T04:09:36;7.90;99.90
20957;DHT22;10637;47.970;7.830;2023-12-14T04:14:38;7.90;99.90
20957;DHT22;10637;47.970;7.830;2023-12-14T04:19:40;8.10;99.90
20957;DHT22;10637;47.970;7.830;2023-12-14T04:24:41;8.20;99.90
20957;DHT22;10637;47.970;7.830;2023-12-14T04:29:43;8.30;99.90
20957;DHT22;10637;47.970;7.830;2023-12-14T04:34:45;8.20;99.90
20957;DHT22;10637;47.970;7.830;2023-12-14T04:39:47;8.00;99.90
20957;DHT22;10637;47.970;7.830;2023-12-14T04:44:48;7.80;99.90
20957;DHT22;10637;47.970;7.830;2023-12-14T04:49:50;7.90;99.90
20957;DHT22;10637;47.970;7.830;2023-12-14T04:54:52;7.80;99.90
20957;DHT22;10637;47.970;7.830;2023-12-14T04:59:54;7.60;99.90
20957;DHT22;10637;47.970;7.830;2023-12-14T05:04:55;7.60;99.90
20957;DHT22;10637;47.970;7.830;2023-12-14T05:09:57;7.70;99.90
20957;DHT22;10637;47.970;7.830;2023-12-14T05:14:59;7.90;99.90
20957;DHT22;10637;47.970;7.830;2023-12-14T05:20:01;8.10;99.90
20957;DHT22;10637;47.970;7.830;2023-12-14T05:25:03;8.10;99.90
20957;DHT22;10637;47.970;7.830;2023-12-14T05:30:06;8.10;99.90
20957;DHT22;10637;47.970;7.830;2023-12-14T05:35:08;7.80;99.90
20957;DHT22;10637;47.970;7.830;2023-12-14T05:40:11;7.70;99.90
20957;DHT22;10637;47.970;7.830;2023-12-14T05:45:13;7.80;99.90
20957;DHT22;10637;47.970;7.830;2023-12-14T05:50:15;8.00;99.90
20957;DHT22;10637;47.970;7.830;2023-12-14T05:55:17;8.10;99.90
20957;DHT22;10637;47.970;7.830;2023-12-14T06:00:23;8.10;99.90
20957;DHT22;10637;47.970;7.830;2023-12-14T06:05:24;8.20;99.90
20957;DHT22;10637;47.970;7.830;2023-12-14T06:10:26;8.00;99.90
20957;DHT22;10637;47.970;7.830;2023-12-14T06:15:28;7.90;99.90
20957;DHT22;10637;47.970;7.830;2023-12-14T06:20:30;7.90;99.90
20957;DHT22;10637;47.970;7.830;2023-12-14T06:25:32;7.90;99.90
20957;DHT22;10637;47.970;7.830;2023-12-14T06:30:33;8.10;99.90
20957;DHT22;10637;47.970;7.830;2023-12-14T06:35:35;8.30;99.90
20957;DHT22;10637;47.970;7.830;2023-12-14T06:40:37;8.30;99.90
20957;DHT22;10637;47.970;7.830;2023-12-14T06:45:39;8.30;99.90
20957;DHT22;10637;47.970;7.830;2023-12-14T06:50:41;8.20;99.90
20957;DHT22;10637;47.970;7.830;2023-12-14T06:55:44;8.20;99.90
20957;DHT22;10637;47.970;7.830;2023-12-14T07:00:46;8.30;99.90
20957;DHT22;10637;47.970;7.830;2023-12-14T07:05:48;8.00;99.90
20957;DHT22;10637;47.970;7.830;2023-12-14T07:10:51;7.90;99.90
20957;DHT22;10637;47.970;7.830;2023-12-14T07:15:52;7.60;99.90
20957;DHT22;10637;47.970;7.830;2023-12-14T07:20:54;7.60;99.90
20957;DHT22;10637;47.970;7.830;2023-12-14T07:25:56;7.60;99.90
20957;DHT22;10637;47.970;7.830;2023-12-14T07:31:00;7.50;99.90
20957;DHT22;10637;47.970;7.830;2023-12-14T07:36:02;7.50;99.90
20957;DHT22;10637;47.970;7.830;2023-12-14T07:41:06;7.60;99.90
20957;DHT22;10637;47.970;7.830;2023-12-14T07:46:08;7.60;99.90
20957;DHT22;10637;47.970;7.830;2023-12-14T07:51:10;7.60;99.90
20957;DHT22;10637;47.970;7.830;2023-12-14T07:56:12;7.60;99.90
20957;DHT22;10637;47.970;7.830;2023-12-14T08:01:13;7.60;99.90
20957;DHT22;10637;47.970;7.830;2023-12-14T08:06:15;7.70;99.90
20957;DHT22;10637;47.970;7.830;2023-12-14T08:11:17;7.60;99.90
20957;DHT22;10637;47.970;7.830;2023-12-14T08:16:19;7.60;99.90
20957;DHT22;10637;47.970;7.830;2023-12-14T08:21:21;7.60;99.90
20957;DHT22;10637;47.970;7.830;2023-12-14T08:26:23;7.60;99.90
20957;DHT22;10637;47.970;7.830;2023-12-14T08:31:24;7.60;99.90
20957;DHT22;10637;47.970;7.830;2023-12-14T08:36:28;7.60;99.90
20957;DHT22;10637;47.970;7.830;2023-12-14T08:41:29;7.50;99.90
20957;DHT22;10637;47.970;7.830;2023-12-14T08:46:41;7.60;99.90
20957;DHT22;10637;47.970;7.830;2023-12-14T08:51:43;7.70;99.90
20957;DHT22;10637;47.970;7.830;2023-12-14T08:56:45;7.80;99.90
20957;DHT22;10637;47.970;7.830;2023-12-14T09:01:47;7.80;99.90
20957;DHT22;10637;47.970;7.830;2023-12-14T09:06:48;7.70;99.90
20957;DHT22;10637;47.970;7.830;2023-12-14T09:11:50;7.80;99.90
20957;DHT22;10637;47.970;7.830;2023-12-14T09:16:55;7.80;99.90
20957;DHT22;10637;47.970;7.830;2023-12-14T09:21:58;7.80;99.90
20957;DHT22;10637;47.970;7.830;2023-12-14T09:26:59;7.70;99.90
20957;DHT22;10637;47.970;7.830;2023-12-14T09:32:01;7.80;99.90
20957;DHT22;10637;47.970;7.830;2023-12-14T09:37:03;7.70;99.90
20957;DHT22;10637;47.970;7.830;2023-12-14T09:42:06;7.80;99.90
20957;DHT22;10637;47.970;7.830;2023-12-14T09:47:09;7.90;99.90
20957;DHT22;10637;47.970;7.830;2023-12-14T09:52:10;8.00;99.90
20957;DHT22;10637;47.970;7.830;2023-12-14T09:57:12;8.00;99.90
20957;DHT22;10637;47.970;7.830;2023-12-14T10:02:14;8.20;99.90
20957;DHT22;10637;47.970;7.830;2023-12-14T10:07:16;8.20;99.90
20957;DHT22;10637;47.970;7.830;2023-12-14T10:12:19;8.30;99.90
20957;DHT22;10637;47.970;7.830;2023-12-14T10:17:23;8.30;99.90
20957;DHT22;10637;47.970;7.830;2023-12-14T10:22:33;8.40;99.90
20957;DHT22;10637;47.970;7.830;2023-12-14T10:27:37;8.50;99.90
20957;DHT22;10637;47.970;7.830;2023-12-14T10:32:39;8.80;99.90
20957;DHT22;10637;47.970;7.830;2023-12-14T10:37:43;9.00;99.90
20957;DHT22;10637;47.970;7.830;2023-12-14T10:42:45;8.90;99.90
20957;DHT22;10637;47.970;7.830;2023-12-14T10:47:47;8.70;99.90
20957;DHT22;10637;47.970;7.830;2023-12-14T10:52:52;8.50;99.90
20957;DHT22;10637;47.970;7.830;2023-12-14T10:57:54;8.60;99.90
20957;DHT22;10637;47.970;7.830;2023-12-14T11:02:57;8.40;99.90
20957;DHT22;10637;47.970;7.830;2023-12-14T11:08:05;8.50;99.90
20957;DHT22;10637;47.970;7.830;2023-12-14T11:13:15;8.50;99.90
20957;DHT22;10637;47.970;7.830;2023-12-14T11:18:23;8.60;99.90
20957;DHT22;10637;47.970;7.830;2023-12-14T11:23:35;8.50;99.90
20957;DHT22;10637;47.970;7.830;2023-12-14T11:28:39;8.60;99.90
20957;DHT22;10637;47.970;7.830;2023-12-14T11:33:45;8.50;99.90
20957;DHT22;10637;47.970;7.830;2023-12-14T11:38:49;8.50;99.90
20957;DHT22;10637;47.970;7.830;2023-12-14T11:43:54;8.50;99.90
20957;DHT22;10637;47.970;7.830;2023-12-14T11:48:57;8.70;99.90
20957;DHT22;10637;47.970;7.830;2023-12-14T11:54:00;8.70;99.90
20957;DHT22;10637;47.970;7.830;2023-12-14T11:59:03;8.70;99.90
20957;DHT22;10637;47.970;7.830;2023-12-14T12:04:09;8.60;99.90
20957;DHT22;10637;47.970;7.830;2023-12-14T12:09:12;8.60;99.90
20957;DHT22;10637;47.970;7.830;2023-12-14T12:14:14;8.70;99.90
20957;DHT22;10637;47.970;7.830;2023-12-14T12:19:16;8.80;99.90
20957;DHT22;10637;47.970;7.830;2023-12-14T12:24:18;8.90;99.90
20957;DHT22;10637;47.970;7.830;2023-12-14T12:29:28;8.90;99.90
20957;DHT22;10637;47.970;7.830;2023-12-14T12:34:30;8.80;99.90
20957;DHT22;10637;47.970;7.830;2023-12-14T12:39:31;8.90;99.90
20957;DHT22;10637;47.970;7.830;2023-12-14T12:44:33;8.90;99.90
20957;DHT22;10637;47.970;7.830;2023-12-14T12:49:35;8.80;99.90
20957;DHT22;10637;47.970;7.830;2023-12-14T12:54:37;9.10;99.90
20957;DHT22;10637;47.970;7.830;2023-12-14T12:59:39;9.20;99.90
20957;DHT22;10637;47.970;7.830;2023-12-14T13:04:40;9.30;99.90
20957;DHT22;10637;47.970;7.830;2023-12-14T13:09:42;9.10;99.90
20957;DHT22;10637;47.970;7.830;2023-12-14T13:14:44;9.20;99.90
20957;DHT22;10637;47.970;7.830;2023-12-14T13:19:46;9.20;99.90
20957;DHT22;10637;47.970;7.830;2023-12-14T13:24:48;9.00;99.90
20957;DHT22;10637;47.970;7.830;2023-12-14T13:29:51;9.00;99.90
20957;DHT22;10637;47.970;7.830;2023-12-14T13:34:53;9.20;99.90
20957;DHT22;10637;47.970;7.830;2023-12-14T13:39:55;9.20;99.90
20957;DHT22;10637;47.970;7.830;2023-12-14T13:44:56;9.40;99.90
20957;DHT22;10637;47.970;7.830;2023-12-14T13:49:58;9.40;99.90
20957;DHT22;10637;47.970;7.830;2023-12-14T13:55:00;9.50;99.90
20957;DHT22;10637;47.970;7.830;2023-12-14T14:00:01;9.40;99.90
20957;DHT22;10637;47.970;7.830;2023-12-14T14:05:04;9.30;99.90
20957;DHT22;10637;47.970;7.830;2023-12-14T14:10:06;9.40;99.90
20957;DHT22;10637;47.970;7.830;2023-12-14T14:15:08;9.40;99.90
20957;DHT22;10637;47.970;7.830;2023-12-14T14:20:11;9.30;99.90
20957;DHT22;10637;47.970;7.830;2023-12-14T14:25:13;9.20;99.90
20957;DHT22;10637;47.970;7.830;2023-12-14T14:30:14;9.30;99.90
20957;DHT22;10637;47.970;7.830;2023-12-14T14:35:18;9.20;99.90
20957;DHT22;10637;47.970;7.830;2023-12-14T14:40:20;9.20;99.90
20957;DHT22;10637;47.970;7.830;2023-12-14T14:45:23;9.20;99.90
20957;DHT22;10637;47.970;7.830;2023-12-14T14:50:25;9.10;99.90
20957;DHT22;10637;47.970;7.830;2023-12-14T14:55:29;9.10;99.90
20957;DHT22;10637;47.970;7.830;2023-12-14T15:00:30;9.00;99.90
20957;DHT22;10637;47.970;7.830;2023-12-14T15:05:34;9.10;99.90
20957;DHT22;10637;47.970;7.830;2023-12-14T15:10:36;9.10;99.90
20957;DHT22;10637;47.970;7.830;2023-12-14T15:15:38;9.20;99.90
20957;DHT22;10637;47.970;7.830;2023-12-14T15:20:40;9.10;99.90
20957;DHT22;10637;47.970;7.830;2023-12-14T15:25:42;9.10;99.90
20957;DHT22;10637;47.970;7.830;2023-12-14T15:30:44;9.10;99.90
20957;DHT22;10637;47.970;7.830;2023-12-14T15:35:45;9.10;99.90
20957;DHT22;10637;47.970;7.830;2023-12-14T15:40:47;9.20;99.90
20957;DHT22;10637;47.970;7.830;2023-12-14T15:45:49;9.20;99.90
20957;DHT22;10637;47.970;7.830;2023-12-14T15:50:51;9.20;99.90
20957;DHT22;10637;47.970;7.830;2023-12-14T15:55:53;9.10;99.90
20957;DHT22;10637;47.970;7.830;2023-12-14T16:00:55;9.00;99.90
20957;DHT22;10637;47.970;7.830;2023-12-14T16:05:57;9.10;99.90
20957;DHT22;10637;47.970;7.830;2023-12-14T16:10:59;8.90;99.90
20957;DHT22;10637;47.970;7.830;2023-12-14T16:16:00;8.80;99.90
20957;DHT22;10637;47.970;7.830;2023-12-14T16:21:02;8.70;99.90
20957;DHT22;10637;47.970;7.830;2023-12-14T16:26:04;8.50;99.90
20957;DHT22;10637;47.970;7.830;2023-12-14T16:31:07;8.40;99.90
20957;DHT22;10637;47.970;7.830;2023-12-14T16:36:12;8.50;99.90
20957;DHT22;10637;47.970;7.830;2023-12-14T16:41:19;8.50;99.90
20957;DHT22;10637;47.970;7.830;2023-12-14T16:46:22;8.30;99.90
20957;DHT22;10637;47.970;7.830;2023-12-14T16:51:24;8.20;99.90
20957;DHT22;10637;47.970;7.830;2023-12-14T16:56:31;8.30;99.90
20957;DHT22;10637;47.970;7.830;2023-12-14T17:01:33;8.30;99.90
20957;DHT22;10637;47.970;7.830;2023-12-14T17:06:35;8.10;99.90
20957;DHT22;10637;47.970;7.830;2023-12-14T17:11:37;8.10;99.90
20957;DHT22;10637;47.970;7.830;2023-12-14T17:16:38;8.00;99.90
20957;DHT22;10637;47.970;7.830;2023-12-14T17:21:40;8.10;99.90
20957;DHT22;10637;47.970;7.830;2023-12-14T17:26:43;8.20;99.90
20957;DHT22;10637;47.970;7.830;2023-12-14T17:31:44;8.30;99.90
20957;DHT22;10637;47.970;7.830;2023-12-14T17:36:46;8.30;99.90
20957;DHT22;10637;47.970;7.830;2023-12-14T17:41:49;8.30;99.90
20957;DHT22;10637;47.970;7.830;2023-12-14T17:46:50;8.30;99.90
20957;DHT22;10637;47.970;7.830;2023-12-14T17:51:52;8.30;99.90
20957;DHT22;10637;47.970;7.830;2023-12-14T17:56:54;8.10;99.90
20957;DHT22;10637;47.970;7.830;2023-12-14T18:01:56;8.10;99.90
20957;DHT22;10637;47.970;7.830;2023-12-14T18:06:58;8.10;99.90
20957;DHT22;10637;47.970;7.830;2023-12-14T18:12:05;8.10;99.90
20957;DHT22;10637;47.970;7.830;2023-12-14T18:17:06;8.10;99.90
20957;DHT22;10637;47.970;7.830;2023-12-14T18:22:08;8.20;99.90
20957;DHT22;10637;47.970;7.830;2023-12-14T18:27:10;8.40;99.90
20957;DHT22;10637;47.970;7.830;2023-12-14T18:32:12;8.50;99.90
20957;DHT22;10637;47.970;7.830;2023-12-14T18:37:13;8.40;99.90
20957;DHT22;10637;47.970;7.830;2023-12-14T18:42:15;8.50;99.90
20957;DHT22;10637;47.970;7.830;2023-12-14T18:47:17;8.40;99.90
20957;DHT22;10637;47.970;7.830;2023-12-14T18:52:19;8.60;99.90
20957;DHT22;10637;47.970;7.830;2023-12-14T18:57:21;8.50;99.90
20957;DHT22;10637;47.970;7.830;2023-12-14T19:02:23;8.50;99.90
20957;DHT22;10637;47.970;7.830;2023-12-14T19:07:29;8.50;99.90
20957;DHT22;10637;47.970;7.830;2023-12-14T19:12:30;8.60;99.90
20957;DHT22;10637;47.970;7.830;2023-12-14T19:17:32;8.60;99.90
20957;DHT22;10637;47.970;7.830;2023-12-14T19:22:35;8.60;99.90
20957;DHT22;10637;47.970;7.830;2023-12-14T19:27:40;8.50;99.90
20957;DHT22;10637;47.970;7.830;2023-12-14T20:20:42;8.60;99.90
20957;DHT22;10637;47.970;7.830;2023-12-14T20:25:43;8.60;99.90
20957;DHT22;10637;47.970;7.830;2023-12-14T20:30:46;8.50;99.90
20957;DHT22;10637;47.970;7.830;2023-12-14T20:35:48;8.60;99.90
20957;DHT22;10637;47.970;7.830;2023-12-14T20:40:53;8.40;99.90
20957;DHT22;10637;47.970;7.830;2023-12-14T20:45:57;8.40;99.90
20957;DHT22;10637;47.970;7.830;2023-12-14T20:50:59;8.40;99.90
20957;DHT22;10637;47.970;7.830;2023-12-14T20:56:00;8.40;99.90
20957;DHT22;10637;47.970;7.830;2023-12-14T21:01:02;8.40;99.90
20957;DHT22;10637;47.970;7.830;2023-12-14T21:06:06;8.30;99.90
20957;DHT22;10637;47.970;7.830;2023-12-14T21:11:10;8.40;99.90
20957;DHT22;10637;47.970;7.830;2023-12-14T21:16:12;8.20;99.90
20957;DHT22;10637;47.970;7.830;2023-12-14T21:21:16;8.20;99.90
20957;DHT22;10637;47.970;7.830;2023-12-14T21:26:18;8.00;99.90
20957;DHT22;10637;47.970;7.830;2023-12-14T21:31:21;7.90;99.90
20957;DHT22;10637;47.970;7.830;2023-12-14T21:36:23;7.80;99.90
20957;DHT22;10637;47.970;7.830;2023-12-14T21:41:25;7.80;99.90
20957;DHT22;10637;47.970;7.830;2023-12-14T21:46:30;7.80;99.90
20957;DHT22;10637;47.970;7.830;2023-12-14T21:51:32;7.80;99.90
20957;DHT22;10637;47.970;7.830;2023-12-14T21:56:33;7.80;99.90
20957;DHT22;10637;47.970;7.830;2023-12-14T22:01:36;7.70;99.90
20957;DHT22;10637;47.970;7.830;2023-12-14T22:06:37;7.70;99.90
20957;DHT22;10637;47.970;7.830;2023-12-14T22:11:39;7.70;99.90
20957;DHT22;10637;47.970;7.830;2023-12-14T22:16:42;7.70;99.90
20957;DHT22;10637;47.970;7.830;2023-12-14T22:21:43;7.70;99.90
20957;DHT22;10637;47.970;7.830;2023-12-14T22:26:47;7.40;99.90
20957;DHT22;10637;47.970;7.830;2023-12-14T22:31:49;7.40;99.90
20957;DHT22;10637;47.970;7.830;2023-12-14T22:36:51;7.10;99.90
20957;DHT22;10637;47.970;7.830;2023-12-14T22:41:53;7.00;99.90
20957;DHT22;10637;47.970;7.830;2023-12-14T22:46:55;6.90;99.90
20957;DHT22;10637;47.970;7.830;2023-12-14T22:51:56;6.90;99.90
20957;DHT22;10637;47.970;7.830;2023-12-14T22:56:58;6.50;99.90
20957;DHT22;10637;47.970;7.830;2023-12-14T23:02:00;6.30;99.90
20957;DHT22;10637;47.970;7.830;2023-12-14T23:07:02;6.50;99.90
20957;DHT22;10637;47.970;7.830;2023-12-14T23:12:04;6.50;99.90
20957;DHT22;10637;47.970;7.830;2023-12-14T23:17:06;6.70;99.90
20957;DHT22;10637;47.970;7.830;2023-12-14T23:22:07;6.60;99.90
20957;DHT22;10637;47.970;7.830;2023-12-14T23:27:10;6.70;99.90
20957;DHT22;10637;47.970;7.830;2023-12-14T23:32:12;6.40;99.90
20957;DHT22;10637;47.970;7.830;2023-12-14T23:37:14;6.20;99.90
20957;DHT22;10637;47.970;7.830;2023-12-14T23:42:16;6.40;99.90
20957;DHT22;10637;47.970;7.830;2023-12-14T23:47:17;6.50;99.90
20957;DHT22;10637;47.970;7.830;2023-12-14T23:52:19;6.40;99.90
20957;DHT22;10637;47.970;7.830;2023-12-14T23:57:21;6.20;99.90
